This is the latest recevied weather packets stored in our database for station/object LRCL. If no packets are shown the sender has not sent any weather packets the latest 1 day(s).
| Time | Temp. | Humidity | Pressure | Rain* | Wind** | Luminosity | Snow |
|---|---|---|---|---|---|---|---|
| 1836274110 | 12.22° C | 94% | 1028 hPa | - | 0 m/s | - | - |
| 1778024888 | 11.11° C | 62% | 1013 hPa | - | 0.89 m/s, 240° | - | - |
| 1778023988 | 11.11° C | 62% | 1013 hPa | - | 0.89 m/s, 240° | - | - |
| 1778023088 | 8.89° C | 66% | 1013 hPa | - | 2.24 m/s, 250° | - | - |
| 1778022188 | 8.89° C | 66% | 1013 hPa | - | 2.24 m/s, 250° | - | - |
| 1778021288 | 10° C | 62% | 1013 hPa | - | 1.34 m/s, 240° | - | - |
| 1778020388 | 10° C | 62% | 1013 hPa | - | 1.34 m/s, 240° | - | - |
| 1778019485 | 11.11° C | 58% | 1013 hPa | - | 3.13 m/s, 260° | - | - |
| 1778018588 | 11.11° C | 58% | 1013 hPa | - | 3.13 m/s, 260° | - | - |
| 1778017689 | 12.22° C | 58% | 1013 hPa | - | 2.24 m/s, 250° | - | - |
| 1778016788 | 12.22° C | 58% | 1013 hPa | - | 2.24 m/s, 250° | - | - |
| 1778015888 | 12.22° C | 58% | 1012 hPa | - | 2.24 m/s, 280° | - | - |
| 1778014988 | 12.22° C | 58% | 1012 hPa | - | 2.24 m/s, 280° | - | - |
| 1778014090 | 12.78° C | 55% | 1012 hPa | - | 1.34 m/s, 260° | - | - |
| 1778013188 | 12.78° C | 55% | 1012 hPa | - | 1.34 m/s, 260° | - | - |
| 1778012319 | 12.22° C | 54% | 1012 hPa | - | 2.68 m/s, 270° | - | - |
| 1778011388 | 12.22° C | 54% | 1012 hPa | - | 2.68 m/s, 270° | - | - |
| 1778010488 | 12.78° C | 55% | 1012 hPa | - | 0 m/s | - | - |
| 1778009588 | 12.78° C | 55% | 1012 hPa | - | 0 m/s | - | - |
| 1778003285 | 20° C | 30% | 1011 hPa | - | 0 m/s | - | - |
| 1778002388 | 20° C | 30% | 1011 hPa | - | 0 m/s | - | - |
| 1778001488 | 23.89° C | 22% | 1011 hPa | - | 1.34 m/s, 130° | - | - |
| 1778000588 | 23.89° C | 22% | 1011 hPa | - | 1.34 m/s, 130° | - | - |
| 1777999688 | 25° C | 19% | 1011 hPa | - | 2.68 m/s, 140° | - | - |
| 1777998788 | 25° C | 19% | 1011 hPa | - | 2.68 m/s, 140° | - | - |
* Rain since midnight (hover to see other rain measurements)
** Current wind speed in m/s (hover to see current wind gust speed)